sensor_id;sensor_type;location;lat;lon;timestamp;P1;durP1;ratioP1;P2;durP2;ratioP2
2712;SDS011;1366;47.988;7.856;2022-12-18T05:00:53;13.50;;;10.57;;
2712;SDS011;1366;47.988;7.856;2022-12-18T05:03:19;17.30;;;11.03;;
2712;SDS011;1366;47.988;7.856;2022-12-18T05:05:48;15.63;;;10.43;;
2712;SDS011;1366;47.988;7.856;2022-12-18T05:08:14;16.13;;;10.27;;
2712;SDS011;1366;47.988;7.856;2022-12-18T05:10:40;14.03;;;10.07;;
2712;SDS011;1366;47.988;7.856;2022-12-18T05:13:06;17.53;;;10.23;;
2712;SDS011;1366;47.988;7.856;2022-12-18T05:15:33;13.67;;;10.30;;
2712;SDS011;1366;47.988;7.856;2022-12-18T05:17:59;14.83;;;10.30;;
2712;SDS011;1366;47.988;7.856;2022-12-18T05:20:26;17.53;;;9.17;;
2712;SDS011;1366;47.988;7.856;2022-12-18T05:22:52;13.43;;;9.90;;
2712;SDS011;1366;47.988;7.856;2022-12-18T05:25:19;13.67;;;10.10;;
2712;SDS011;1366;47.988;7.856;2022-12-18T05:27:45;12.27;;;9.00;;
2712;SDS011;1366;47.988;7.856;2022-12-18T05:30:11;14.23;;;9.67;;
2712;SDS011;1366;47.988;7.856;2022-12-18T05:32:37;14.97;;;9.83;;
2712;SDS011;1366;47.988;7.856;2022-12-18T05:35:04;13.87;;;9.27;;
2712;SDS011;1366;47.988;7.856;2022-12-18T05:37:31;11.57;;;9.10;;
2712;SDS011;1366;47.988;7.856;2022-12-18T05:39:57;15.60;;;9.97;;
2712;SDS011;1366;47.988;7.856;2022-12-18T05:42:23;15.23;;;9.70;;
2712;SDS011;1366;47.988;7.856;2022-12-18T05:44:49;17.43;;;10.23;;
2712;SDS011;1366;47.988;7.856;2022-12-18T05:47:15;12.10;;;10.30;;
2712;SDS011;1366;47.988;7.856;2022-12-18T05:49:41;12.10;;;9.13;;
2712;SDS011;1366;47.988;7.856;2022-12-18T05:52:07;13.07;;;8.93;;
2712;SDS011;1366;47.988;7.856;2022-12-18T05:54:34;13.87;;;9.27;;
2712;SDS011;1366;47.988;7.856;2022-12-18T05:57:00;14.50;;;9.90;;
2712;SDS011;1366;47.988;7.856;2022-12-18T05:59:26;15.43;;;9.97;;
2712;SDS011;1366;47.988;7.856;2022-12-18T06:01:52;14.93;;;9.23;;
2712;SDS011;1366;47.988;7.856;2022-12-18T06:04:18;14.00;;;8.83;;
2712;SDS011;1366;47.988;7.856;2022-12-18T06:06:44;11.07;;;8.60;;
2712;SDS011;1366;47.988;7.856;2022-12-18T06:09:10;13.00;;;8.40;;
2712;SDS011;1366;47.988;7.856;2022-12-18T06:11:37;11.50;;;7.30;;
2712;SDS011;1366;47.988;7.856;2022-12-18T06:14:04;12.87;;;7.30;;
2712;SDS011;1366;47.988;7.856;2022-12-18T06:16:31;10.30;;;7.37;;
2712;SDS011;1366;47.988;7.856;2022-12-18T06:18:58;11.40;;;8.37;;
2712;SDS011;1366;47.988;7.856;2022-12-18T06:21:24;9.50;;;7.53;;
2712;SDS011;1366;47.988;7.856;2022-12-18T06:23:50;11.97;;;8.87;;
2712;SDS011;1366;47.988;7.856;2022-12-18T06:26:16;11.03;;;8.30;;
2712;SDS011;1366;47.988;7.856;2022-12-18T06:28:42;12.97;;;9.53;;
2712;SDS011;1366;47.988;7.856;2022-12-18T06:31:08;14.90;;;9.50;;
2712;SDS011;1366;47.988;7.856;2022-12-18T06:33:34;13.37;;;9.97;;
2712;SDS011;1366;47.988;7.856;2022-12-18T06:36:11;13.50;;;9.97;;
2712;SDS011;1366;47.988;7.856;2022-12-18T06:38:39;15.10;;;10.70;;
2712;SDS011;1366;47.988;7.856;2022-12-18T06:41:09;13.83;;;9.50;;
2712;SDS011;1366;47.988;7.856;2022-12-18T06:43:35;9.80;;;7.90;;
2712;SDS011;1366;47.988;7.856;2022-12-18T06:46:02;11.23;;;9.03;;
2712;SDS011;1366;47.988;7.856;2022-12-18T06:48:28;12.37;;;9.40;;
2712;SDS011;1366;47.988;7.856;2022-12-18T06:50:54;14.80;;;8.20;;
2712;SDS011;1366;47.988;7.856;2022-12-18T06:53:20;12.40;;;9.63;;
2712;SDS011;1366;47.988;7.856;2022-12-18T06:55:46;10.97;;;8.80;;
2712;SDS011;1366;47.988;7.856;2022-12-18T06:58:12;12.70;;;8.07;;
2712;SDS011;1366;47.988;7.856;2022-12-18T07:00:39;12.60;;;9.03;;
2712;SDS011;1366;47.988;7.856;2022-12-18T07:03:05;16.43;;;10.10;;
2712;SDS011;1366;47.988;7.856;2022-12-18T07:05:31;15.20;;;9.70;;
2712;SDS011;1366;47.988;7.856;2022-12-18T07:07:57;14.60;;;9.80;;
2712;SDS011;1366;47.988;7.856;2022-12-18T07:10:23;12.03;;;8.17;;
2712;SDS011;1366;47.988;7.856;2022-12-18T07:12:50;12.10;;;8.87;;
2712;SDS011;1366;47.988;7.856;2022-12-18T07:15:16;13.20;;;8.27;;
2712;SDS011;1366;47.988;7.856;2022-12-18T07:17:42;11.03;;;7.77;;
2712;SDS011;1366;47.988;7.856;2022-12-18T07:20:08;11.50;;;7.40;;
2712;SDS011;1366;47.988;7.856;2022-12-18T07:22:34;10.17;;;6.87;;
2712;SDS011;1366;47.988;7.856;2022-12-18T07:25:00;9.30;;;6.93;;
2712;SDS011;1366;47.988;7.856;2022-12-18T07:27:26;9.10;;;7.53;;
2712;SDS011;1366;47.988;7.856;2022-12-18T07:29:52;9.47;;;6.83;;
2712;SDS011;1366;47.988;7.856;2022-12-18T07:32:19;11.27;;;7.90;;
2712;SDS011;1366;47.988;7.856;2022-12-18T07:34:45;13.33;;;8.93;;
2712;SDS011;1366;47.988;7.856;2022-12-18T07:37:11;11.60;;;8.30;;
2712;SDS011;1366;47.988;7.856;2022-12-18T07:39:38;18.03;;;11.03;;
2712;SDS011;1366;47.988;7.856;2022-12-18T07:42:04;14.70;;;9.50;;
2712;SDS011;1366;47.988;7.856;2022-12-18T07:44:52;13.67;;;10.50;;
2712;SDS011;1366;47.988;7.856;2022-12-18T07:47:18;15.70;;;10.50;;
2712;SDS011;1366;47.988;7.856;2022-12-18T07:49:44;17.30;;;10.23;;
2712;SDS011;1366;47.988;7.856;2022-12-18T07:52:11;13.80;;;10.37;;
2712;SDS011;1366;47.988;7.856;2022-12-18T07:54:37;17.37;;;10.50;;
2712;SDS011;1366;47.988;7.856;2022-12-18T07:57:03;13.40;;;10.50;;
2712;SDS011;1366;47.988;7.856;2022-12-18T07:59:29;14.00;;;10.07;;
2712;SDS011;1366;47.988;7.856;2022-12-18T08:01:55;17.40;;;11.33;;
2712;SDS011;1366;47.988;7.856;2022-12-18T08:04:21;15.10;;;10.87;;
2712;SDS011;1366;47.988;7.856;2022-12-18T08:06:48;15.33;;;11.00;;
2712;SDS011;1366;47.988;7.856;2022-12-18T08:09:14;13.33;;;10.57;;
2712;SDS011;1366;47.988;7.856;2022-12-18T08:11:40;17.87;;;11.60;;
2712;SDS011;1366;47.988;7.856;2022-12-18T08:14:06;14.90;;;11.10;;
2712;SDS011;1366;47.988;7.856;2022-12-18T08:16:32;14.10;;;10.00;;
2712;SDS011;1366;47.988;7.856;2022-12-18T08:18:58;10.97;;;9.70;;
2712;SDS011;1366;47.988;7.856;2022-12-18T08:21:25;13.00;;;9.80;;
2712;SDS011;1366;47.988;7.856;2022-12-18T08:23:52;12.27;;;9.80;;
2712;SDS011;1366;47.988;7.856;2022-12-18T08:26:19;17.17;;;10.10;;
2712;SDS011;1366;47.988;7.856;2022-12-18T08:28:45;12.07;;;9.93;;
2712;SDS011;1366;47.988;7.856;2022-12-18T08:31:11;18.07;;;11.23;;
2712;SDS011;1366;47.988;7.856;2022-12-18T08:33:38;17.97;;;11.70;;
2712;SDS011;1366;47.988;7.856;2022-12-18T08:36:04;17.47;;;11.60;;
2712;SDS011;1366;47.988;7.856;2022-12-18T08:38:31;13.43;;;10.63;;
2712;SDS011;1366;47.988;7.856;2022-12-18T08:43:26;11.30;;;8.80;;
2712;SDS011;1366;47.988;7.856;2022-12-18T08:46:11;14.93;;;10.43;;
2712;SDS011;1366;47.988;7.856;2022-12-18T08:48:40;14.93;;;10.20;;
2712;SDS011;1366;47.988;7.856;2022-12-18T08:51:06;15.23;;;11.23;;
2712;SDS011;1366;47.988;7.856;2022-12-18T08:53:34;11.10;;;9.23;;
2712;SDS011;1366;47.988;7.856;2022-12-18T08:56:00;12.47;;;9.60;;
2712;SDS011;1366;47.988;7.856;2022-12-18T08:58:27;11.87;;;9.33;;
2712;SDS011;1366;47.988;7.856;2022-12-18T09:00:53;13.40;;;11.00;;
2712;SDS011;1366;47.988;7.856;2022-12-18T09:03:19;18.53;;;10.10;;
2712;SDS011;1366;47.988;7.856;2022-12-18T09:05:47;13.47;;;10.57;;
2712;SDS011;1366;47.988;7.856;2022-12-18T09:08:13;16.90;;;10.70;;
2712;SDS011;1366;47.988;7.856;2022-12-18T09:10:47;20.20;;;11.87;;
2712;SDS011;1366;47.988;7.856;2022-12-18T09:13:13;16.83;;;11.77;;
2712;SDS011;1366;47.988;7.856;2022-12-18T09:15:44;16.70;;;11.13;;
2712;SDS011;1366;47.988;7.856;2022-12-18T09:18:10;15.17;;;11.17;;
2712;SDS011;1366;47.988;7.856;2022-12-18T09:20:36;17.53;;;11.90;;
2712;SDS011;1366;47.988;7.856;2022-12-18T09:23:03;17.03;;;11.33;;
2712;SDS011;1366;47.988;7.856;2022-12-18T09:25:29;17.50;;;11.67;;
2712;SDS011;1366;47.988;7.856;2022-12-18T09:27:58;15.43;;;12.13;;
2712;SDS011;1366;47.988;7.856;2022-12-18T09:30:24;24.07;;;13.80;;
2712;SDS011;1366;47.988;7.856;2022-12-18T09:32:50;20.63;;;12.43;;
2712;SDS011;1366;47.988;7.856;2022-12-18T09:35:19;20.60;;;12.80;;
2712;SDS011;1366;47.988;7.856;2022-12-18T09:37:45;20.37;;;13.43;;
2712;SDS011;1366;47.988;7.856;2022-12-18T09:40:18;17.50;;;12.50;;
2712;SDS011;1366;47.988;7.856;2022-12-18T09:42:45;19.47;;;12.50;;
2712;SDS011;1366;47.988;7.856;2022-12-18T09:45:14;17.97;;;12.50;;
2712;SDS011;1366;47.988;7.856;2022-12-18T09:47:41;21.00;;;13.40;;
2712;SDS011;1366;47.988;7.856;2022-12-18T09:50:26;19.50;;;13.10;;
2712;SDS011;1366;47.988;7.856;2022-12-18T09:52:54;24.73;;;14.53;;
2712;SDS011;1366;47.988;7.856;2022-12-18T09:57:51;22.60;;;14.57;;
2712;SDS011;1366;47.988;7.856;2022-12-18T10:00:19;24.60;;;14.63;;
2712;SDS011;1366;47.988;7.856;2022-12-18T10:02:46;23.27;;;16.00;;
2712;SDS011;1366;47.988;7.856;2022-12-18T10:05:13;20.73;;;14.20;;
2712;SDS011;1366;47.988;7.856;2022-12-18T10:10:32;21.33;;;13.70;;
2712;SDS011;1366;47.988;7.856;2022-12-18T10:20:46;24.80;;;15.80;;
2712;SDS011;1366;47.988;7.856;2022-12-18T10:23:28;21.67;;;16.63;;
2712;SDS011;1366;47.988;7.856;2022-12-18T10:26:05;24.00;;;15.93;;
2712;SDS011;1366;47.988;7.856;2022-12-18T10:28:32;23.17;;;15.60;;
2712;SDS011;1366;47.988;7.856;2022-12-18T10:31:01;20.77;;;15.23;;
2712;SDS011;1366;47.988;7.856;2022-12-18T10:33:29;18.87;;;13.87;;
2712;SDS011;1366;47.988;7.856;2022-12-18T10:35:56;19.90;;;13.60;;
2712;SDS011;1366;47.988;7.856;2022-12-18T10:43:36;16.97;;;12.23;;
2712;SDS011;1366;47.988;7.856;2022-12-18T10:53:50;16.40;;;13.30;;
2712;SDS011;1366;47.988;7.856;2022-12-18T10:56:18;14.30;;;11.57;;
2712;SDS011;1366;47.988;7.856;2022-12-18T10:58:46;14.50;;;11.93;;
2712;SDS011;1366;47.988;7.856;2022-12-18T11:01:21;15.23;;;12.10;;
2712;SDS011;1366;47.988;7.856;2022-12-18T11:06:17;20.73;;;14.50;;
2712;SDS011;1366;47.988;7.856;2022-12-18T11:08:46;25.83;;;17.77;;
2712;SDS011;1366;47.988;7.856;2022-12-18T11:11:23;30.73;;;19.40;;
2712;SDS011;1366;47.988;7.856;2022-12-18T11:14:05;28.67;;;19.57;;
2712;SDS011;1366;47.988;7.856;2022-12-18T11:16:50;25.30;;;17.77;;
2712;SDS011;1366;47.988;7.856;2022-12-18T11:21:47;23.93;;;17.13;;
2712;SDS011;1366;47.988;7.856;2022-12-18T11:26:55;24.93;;;19.20;;
2712;SDS011;1366;47.988;7.856;2022-12-18T11:29:28;25.73;;;17.20;;
2712;SDS011;1366;47.988;7.856;2022-12-18T11:32:20;24.40;;;17.17;;
2712;SDS011;1366;47.988;7.856;2022-12-18T11:34:50;24.63;;;17.07;;
2712;SDS011;1366;47.988;7.856;2022-12-18T11:37:18;28.50;;;20.00;;
2712;SDS011;1366;47.988;7.856;2022-12-18T11:39:54;24.27;;;14.23;;
2712;SDS011;1366;47.988;7.856;2022-12-18T11:42:32;27.93;;;20.63;;
2712;SDS011;1366;47.988;7.856;2022-12-18T11:45:14;29.57;;;19.97;;
2712;SDS011;1366;47.988;7.856;2022-12-18T11:47:48;32.80;;;21.20;;
2712;SDS011;1366;47.988;7.856;2022-12-18T11:50:17;31.33;;;21.10;;
2712;SDS011;1366;47.988;7.856;2022-12-18T11:52:43;28.00;;;19.00;;
2712;SDS011;1366;47.988;7.856;2022-12-18T11:55:16;26.73;;;18.70;;
2712;SDS011;1366;47.988;7.856;2022-12-18T11:57:49;25.63;;;18.20;;
2712;SDS011;1366;47.988;7.856;2022-12-18T12:00:20;28.70;;;18.67;;
2712;SDS011;1366;47.988;7.856;2022-12-18T12:15:27;30.23;;;21.60;;
2712;SDS011;1366;47.988;7.856;2022-12-18T12:18:02;32.10;;;21.30;;
2712;SDS011;1366;47.988;7.856;2022-12-18T12:20:45;31.20;;;20.13;;
2712;SDS011;1366;47.988;7.856;2022-12-18T12:23:33;31.40;;;20.63;;
2712;SDS011;1366;47.988;7.856;2022-12-18T12:26:09;31.20;;;19.27;;
2712;SDS011;1366;47.988;7.856;2022-12-18T12:28:42;29.63;;;19.77;;
2712;SDS011;1366;47.988;7.856;2022-12-18T12:36:41;32.17;;;19.47;;
2712;SDS011;1366;47.988;7.856;2022-12-18T12:39:15;24.80;;;19.17;;
2712;SDS011;1366;47.988;7.856;2022-12-18T12:41:43;28.40;;;18.80;;
2712;SDS011;1366;47.988;7.856;2022-12-18T12:44:30;26.73;;;18.50;;
2712;SDS011;1366;47.988;7.856;2022-12-18T12:46:59;28.60;;;20.63;;
2712;SDS011;1366;47.988;7.856;2022-12-18T12:49:27;29.50;;;20.20;;
2712;SDS011;1366;47.988;7.856;2022-12-18T12:52:16;28.07;;;19.17;;
2712;SDS011;1366;47.988;7.856;2022-12-18T12:54:40;28.33;;;19.27;;
2712;SDS011;1366;47.988;7.856;2022-12-18T13:02:15;28.70;;;19.90;;
2712;SDS011;1366;47.988;7.856;2022-12-18T13:04:56;29.37;;;18.13;;
2712;SDS011;1366;47.988;7.856;2022-12-18T13:12:34;25.07;;;17.93;;
2712;SDS011;1366;47.988;7.856;2022-12-18T13:20:34;31.47;;;20.37;;
2712;SDS011;1366;47.988;7.856;2022-12-18T13:23:18;31.93;;;19.67;;
2712;SDS011;1366;47.988;7.856;2022-12-18T13:25:44;25.43;;;19.40;;
2712;SDS011;1366;47.988;7.856;2022-12-18T13:28:12;27.90;;;19.77;;
2712;SDS011;1366;47.988;7.856;2022-12-18T13:38:22;21.13;;;16.93;;
2712;SDS011;1366;47.988;7.856;2022-12-18T13:45:44;22.90;;;14.77;;
2712;SDS011;1366;47.988;7.856;2022-12-18T13:48:14;20.47;;;15.33;;
2712;SDS011;1366;47.988;7.856;2022-12-18T13:50:41;23.00;;;16.83;;
2712;SDS011;1366;47.988;7.856;2022-12-18T13:53:12;19.03;;;14.87;;
2712;SDS011;1366;47.988;7.856;2022-12-18T13:55:44;18.60;;;13.57;;
2712;SDS011;1366;47.988;7.856;2022-12-18T13:58:11;17.90;;;14.77;;
2712;SDS011;1366;47.988;7.856;2022-12-18T14:00:41;21.00;;;15.03;;
2712;SDS011;1366;47.988;7.856;2022-12-18T14:03:20;17.80;;;13.30;;
2712;SDS011;1366;47.988;7.856;2022-12-18T14:05:51;22.70;;;14.70;;
2712;SDS011;1366;47.988;7.856;2022-12-18T14:08:18;24.17;;;14.57;;
2712;SDS011;1366;47.988;7.856;2022-12-18T14:10:45;21.73;;;14.40;;
2712;SDS011;1366;47.988;7.856;2022-12-18T14:13:14;19.27;;;13.73;;
2712;SDS011;1366;47.988;7.856;2022-12-18T14:15:41;13.80;;;12.00;;
2712;SDS011;1366;47.988;7.856;2022-12-18T14:18:19;18.70;;;13.83;;
2712;SDS011;1366;47.988;7.856;2022-12-18T14:20:46;20.50;;;14.57;;
2712;SDS011;1366;47.988;7.856;2022-12-18T14:26:27;17.77;;;13.03;;
2712;SDS011;1366;47.988;7.856;2022-12-18T14:28:54;18.27;;;13.13;;
2712;SDS011;1366;47.988;7.856;2022-12-18T14:31:25;17.83;;;13.23;;
2712;SDS011;1366;47.988;7.856;2022-12-18T14:33:51;18.60;;;13.53;;
2712;SDS011;1366;47.988;7.856;2022-12-18T14:36:22;16.37;;;12.90;;
2712;SDS011;1366;47.988;7.856;2022-12-18T14:38:51;17.10;;;13.33;;
2712;SDS011;1366;47.988;7.856;2022-12-18T14:41:19;17.10;;;12.50;;
2712;SDS011;1366;47.988;7.856;2022-12-18T14:43:49;17.03;;;13.00;;
2712;SDS011;1366;47.988;7.856;2022-12-18T14:49:01;21.30;;;13.33;;
2712;SDS011;1366;47.988;7.856;2022-12-18T14:51:31;20.00;;;14.40;;
2712;SDS011;1366;47.988;7.856;2022-12-18T14:59:05;17.53;;;14.07;;
2712;SDS011;1366;47.988;7.856;2022-12-18T15:03:58;18.63;;;14.07;;
2712;SDS011;1366;47.988;7.856;2022-12-18T15:06:32;19.87;;;14.43;;
2712;SDS011;1366;47.988;7.856;2022-12-18T15:08:59;34.30;;;20.30;;
2712;SDS011;1366;47.988;7.856;2022-12-18T15:11:26;26.40;;;17.30;;
2712;SDS011;1366;47.988;7.856;2022-12-18T15:13:53;23.93;;;18.30;;
2712;SDS011;1366;47.988;7.856;2022-12-18T15:16:19;27.87;;;19.20;;
2712;SDS011;1366;47.988;7.856;2022-12-18T15:18:45;25.83;;;19.50;;
2712;SDS011;1366;47.988;7.856;2022-12-18T15:21:16;23.63;;;18.87;;
2712;SDS011;1366;47.988;7.856;2022-12-18T15:26:09;23.10;;;18.00;;
2712;SDS011;1366;47.988;7.856;2022-12-18T15:34:18;21.50;;;16.30;;
2712;SDS011;1366;47.988;7.856;2022-12-18T15:36:22;25.03;;;16.17;;
2712;SDS011;1366;47.988;7.856;2022-12-18T15:38:49;23.17;;;15.97;;
2712;SDS011;1366;47.988;7.856;2022-12-18T15:41:16;22.67;;;15.90;;
2712;SDS011;1366;47.988;7.856;2022-12-18T15:43:42;24.53;;;18.77;;
2712;SDS011;1366;47.988;7.856;2022-12-18T15:46:12;24.23;;;17.57;;
2712;SDS011;1366;47.988;7.856;2022-12-18T15:48:40;25.20;;;18.80;;
2712;SDS011;1366;47.988;7.856;2022-12-18T15:53:41;26.03;;;18.57;;
2712;SDS011;1366;47.988;7.856;2022-12-18T15:56:10;29.50;;;20.30;;
2712;SDS011;1366;47.988;7.856;2022-12-18T15:58:55;24.07;;;17.80;;
2712;SDS011;1366;47.988;7.856;2022-12-18T16:01:22;23.23;;;18.27;;
2712;SDS011;1366;47.988;7.856;2022-12-18T16:03:48;26.50;;;19.50;;
2712;SDS011;1366;47.988;7.856;2022-12-18T16:06:14;26.17;;;19.00;;
2712;SDS011;1366;47.988;7.856;2022-12-18T16:08:41;23.80;;;18.80;;
2712;SDS011;1366;47.988;7.856;2022-12-18T16:11:11;25.10;;;16.97;;
2712;SDS011;1366;47.988;7.856;2022-12-18T16:13:42;22.97;;;17.80;;
2712;SDS011;1366;47.988;7.856;2022-12-18T16:16:08;23.60;;;17.80;;
2712;SDS011;1366;47.988;7.856;2022-12-18T16:18:34;22.73;;;19.17;;
2712;SDS011;1366;47.988;7.856;2022-12-18T16:21:00;25.53;;;18.67;;
2712;SDS011;1366;47.988;7.856;2022-12-18T16:23:28;24.40;;;18.17;;
2712;SDS011;1366;47.988;7.856;2022-12-18T16:25:54;27.90;;;19.47;;
2712;SDS011;1366;47.988;7.856;2022-12-18T16:28:20;28.17;;;19.57;;
2712;SDS011;1366;47.988;7.856;2022-12-18T16:30:46;23.87;;;18.63;;
2712;SDS011;1366;47.988;7.856;2022-12-18T16:33:12;27.30;;;20.50;;
2712;SDS011;1366;47.988;7.856;2022-12-18T16:35:38;28.47;;;21.37;;
2712;SDS011;1366;47.988;7.856;2022-12-18T16:38:04;29.57;;;21.10;;
2712;SDS011;1366;47.988;7.856;2022-12-18T16:40:31;29.90;;;21.73;;
2712;SDS011;1366;47.988;7.856;2022-12-18T16:42:57;27.53;;;21.57;;
2712;SDS011;1366;47.988;7.856;2022-12-18T16:45:24;27.70;;;22.03;;
2712;SDS011;1366;47.988;7.856;2022-12-18T16:47:57;26.90;;;21.60;;
2712;SDS011;1366;47.988;7.856;2022-12-18T16:50:23;23.33;;;18.67;;
2712;SDS011;1366;47.988;7.856;2022-12-18T16:52:49;32.23;;;21.27;;
2712;SDS011;1366;47.988;7.856;2022-12-18T16:55:15;26.73;;;20.77;;
2712;SDS011;1366;47.988;7.856;2022-12-18T16:57:44;25.67;;;20.23;;
2712;SDS011;1366;47.988;7.856;2022-12-18T17:00:10;26.13;;;19.90;;
2712;SDS011;1366;47.988;7.856;2022-12-18T17:02:37;24.03;;;18.43;;
2712;SDS011;1366;47.988;7.856;2022-12-18T17:05:03;34.57;;;23.73;;
2712;SDS011;1366;47.988;7.856;2022-12-18T17:07:29;32.10;;;21.50;;
2712;SDS011;1366;47.988;7.856;2022-12-18T17:09:56;28.27;;;20.77;;
2712;SDS011;1366;47.988;7.856;2022-12-18T17:12:22;29.07;;;21.23;;
2712;SDS011;1366;47.988;7.856;2022-12-18T17:14:48;30.60;;;20.50;;
2712;SDS011;1366;47.988;7.856;2022-12-18T17:17:15;26.23;;;21.10;;
2712;SDS011;1366;47.988;7.856;2022-12-18T17:19:41;27.70;;;20.40;;
2712;SDS011;1366;47.988;7.856;2022-12-18T17:22:07;30.20;;;21.07;;
2712;SDS011;1366;47.988;7.856;2022-12-18T17:24:33;26.07;;;20.07;;
2712;SDS011;1366;47.988;7.856;2022-12-18T17:26:59;29.63;;;20.67;;
2712;SDS011;1366;47.988;7.856;2022-12-18T17:29:26;28.10;;;20.63;;
2712;SDS011;1366;47.988;7.856;2022-12-18T17:31:52;33.00;;;22.37;;
2712;SDS011;1366;47.988;7.856;2022-12-18T17:34:18;28.50;;;21.87;;
2712;SDS011;1366;47.988;7.856;2022-12-18T17:36:45;25.20;;;20.40;;
2712;SDS011;1366;47.988;7.856;2022-12-18T17:39:14;28.87;;;19.90;;
2712;SDS011;1366;47.988;7.856;2022-12-18T17:41:41;30.37;;;21.27;;
2712;SDS011;1366;47.988;7.856;2022-12-18T17:44:07;29.03;;;21.83;;
2712;SDS011;1366;47.988;7.856;2022-12-18T17:46:34;36.10;;;24.00;;
2712;SDS011;1366;47.988;7.856;2022-12-18T17:49:01;29.77;;;22.57;;
2712;SDS011;1366;47.988;7.856;2022-12-18T17:51:28;29.77;;;23.80;;
2712;SDS011;1366;47.988;7.856;2022-12-18T17:53:54;27.40;;;21.30;;
2712;SDS011;1366;47.988;7.856;2022-12-18T17:56:21;28.23;;;20.53;;
2712;SDS011;1366;47.988;7.856;2022-12-18T17:58:48;33.77;;;22.57;;
2712;SDS011;1366;47.988;7.856;2022-12-18T18:01:18;32.33;;;24.13;;
2712;SDS011;1366;47.988;7.856;2022-12-18T18:03:44;31.93;;;24.33;;
2712;SDS011;1366;47.988;7.856;2022-12-18T18:06:11;31.00;;;23.53;;
2712;SDS011;1366;47.988;7.856;2022-12-18T18:08:37;31.60;;;24.37;;
2712;SDS011;1366;47.988;7.856;2022-12-18T18:11:04;34.80;;;25.60;;
2712;SDS011;1366;47.988;7.856;2022-12-18T18:13:50;28.43;;;22.70;;
2712;SDS011;1366;47.988;7.856;2022-12-18T18:16:25;33.93;;;24.70;;
2712;SDS011;1366;47.988;7.856;2022-12-18T18:18:51;25.00;;;19.23;;
2712;SDS011;1366;47.988;7.856;2022-12-18T18:21:17;27.83;;;22.33;;
2712;SDS011;1366;47.988;7.856;2022-12-18T18:23:43;30.53;;;24.10;;
2712;SDS011;1366;47.988;7.856;2022-12-18T18:26:09;28.70;;;22.87;;
2712;SDS011;1366;47.988;7.856;2022-12-18T18:28:35;31.10;;;23.40;;
2712;SDS011;1366;47.988;7.856;2022-12-18T18:31:05;36.30;;;25.27;;
2712;SDS011;1366;47.988;7.856;2022-12-18T18:33:32;32.23;;;24.20;;
2712;SDS011;1366;47.988;7.856;2022-12-18T18:35:58;32.90;;;24.30;;
2712;SDS011;1366;47.988;7.856;2022-12-18T18:38:24;30.20;;;23.77;;
2712;SDS011;1366;47.988;7.856;2022-12-18T18:41:00;33.03;;;23.00;;
2712;SDS011;1366;47.988;7.856;2022-12-18T18:43:26;27.77;;;20.97;;
2712;SDS011;1366;47.988;7.856;2022-12-18T18:45:56;31.10;;;23.00;;
2712;SDS011;1366;47.988;7.856;2022-12-18T18:48:22;26.43;;;21.00;;
2712;SDS011;1366;47.988;7.856;2022-12-18T18:50:58;30.37;;;21.90;;
2712;SDS011;1366;47.988;7.856;2022-12-18T18:53:25;29.70;;;20.93;;
2712;SDS011;1366;47.988;7.856;2022-12-18T18:55:52;28.60;;;21.80;;
2712;SDS011;1366;47.988;7.856;2022-12-18T18:58:18;30.10;;;23.10;;
2712;SDS011;1366;47.988;7.856;2022-12-18T19:00:44;29.10;;;21.17;;
2712;SDS011;1366;47.988;7.856;2022-12-18T19:03:10;28.70;;;22.00;;
2712;SDS011;1366;47.988;7.856;2022-12-18T19:05:36;27.70;;;21.73;;
2712;SDS011;1366;47.988;7.856;2022-12-18T19:08:02;32.50;;;23.70;;
2712;SDS011;1366;47.988;7.856;2022-12-18T19:10:28;30.70;;;23.10;;
2712;SDS011;1366;47.988;7.856;2022-12-18T19:12:54;28.83;;;22.43;;
2712;SDS011;1366;47.988;7.856;2022-12-18T19:15:39;28.40;;;21.83;;
2712;SDS011;1366;47.988;7.856;2022-12-18T19:18:05;33.57;;;23.53;;
2712;SDS011;1366;47.988;7.856;2022-12-18T19:20:31;34.57;;;24.67;;
2712;SDS011;1366;47.988;7.856;2022-12-18T19:22:57;34.57;;;24.17;;
2712;SDS011;1366;47.988;7.856;2022-12-18T19:25:24;38.13;;;24.87;;
2712;SDS011;1366;47.988;7.856;2022-12-18T19:27:53;29.83;;;22.70;;
2712;SDS011;1366;47.988;7.856;2022-12-18T19:30:19;33.33;;;23.80;;
2712;SDS011;1366;47.988;7.856;2022-12-18T19:32:45;29.63;;;24.27;;
2712;SDS011;1366;47.988;7.856;2022-12-18T19:35:11;33.47;;;23.73;;
2712;SDS011;1366;47.988;7.856;2022-12-18T19:37:37;31.63;;;23.83;;
2712;SDS011;1366;47.988;7.856;2022-12-18T19:40:03;30.77;;;23.27;;
2712;SDS011;1366;47.988;7.856;2022-12-18T19:42:29;39.90;;;26.30;;
2712;SDS011;1366;47.988;7.856;2022-12-18T19:44:55;30.70;;;24.07;;
2712;SDS011;1366;47.988;7.856;2022-12-18T19:47:21;34.03;;;23.67;;
2712;SDS011;1366;47.988;7.856;2022-12-18T19:49:47;30.97;;;22.77;;
2712;SDS011;1366;47.988;7.856;2022-12-18T19:52:14;33.13;;;24.07;;
2712;SDS011;1366;47.988;7.856;2022-12-18T19:54:40;31.20;;;23.73;;
2712;SDS011;1366;47.988;7.856;2022-12-18T19:57:06;33.83;;;25.87;;
2712;SDS011;1366;47.988;7.856;2022-12-18T19:59:35;32.03;;;24.40;;
2712;SDS011;1366;47.988;7.856;2022-12-18T20:02:01;37.40;;;26.07;;
2712;SDS011;1366;47.988;7.856;2022-12-18T20:04:27;34.00;;;25.70;;
2712;SDS011;1366;47.988;7.856;2022-12-18T20:06:53;34.30;;;23.77;;
2712;SDS011;1366;47.988;7.856;2022-12-18T20:09:20;29.47;;;22.87;;
2712;SDS011;1366;47.988;7.856;2022-12-18T20:11:46;29.43;;;24.43;;
2712;SDS011;1366;47.988;7.856;2022-12-18T20:14:13;31.63;;;23.90;;
2712;SDS011;1366;47.988;7.856;2022-12-18T20:16:40;28.90;;;22.77;;
2712;SDS011;1366;47.988;7.856;2022-12-18T20:19:06;25.97;;;20.60;;
2712;SDS011;1366;47.988;7.856;2022-12-18T20:21:32;31.77;;;23.00;;
2712;SDS011;1366;47.988;7.856;2022-12-18T20:23:58;27.67;;;21.03;;
2712;SDS011;1366;47.988;7.856;2022-12-18T20:26:26;28.00;;;21.60;;
2712;SDS011;1366;47.988;7.856;2022-12-18T20:28:53;31.63;;;21.63;;
2712;SDS011;1366;47.988;7.856;2022-12-18T20:31:19;28.27;;;21.93;;
2712;SDS011;1366;47.988;7.856;2022-12-18T20:33:45;33.67;;;23.10;;
2712;SDS011;1366;47.988;7.856;2022-12-18T20:36:12;32.27;;;22.83;;
2712;SDS011;1366;47.988;7.856;2022-12-18T20:38:39;34.03;;;23.73;;
2712;SDS011;1366;47.988;7.856;2022-12-18T20:41:13;31.50;;;24.43;;
2712;SDS011;1366;47.988;7.856;2022-12-18T20:43:40;28.33;;;22.77;;
2712;SDS011;1366;47.988;7.856;2022-12-18T20:46:09;31.47;;;23.53;;
2712;SDS011;1366;47.988;7.856;2022-12-18T20:48:35;29.23;;;23.73;;
2712;SDS011;1366;47.988;7.856;2022-12-18T20:51:05;32.77;;;24.27;;
2712;SDS011;1366;47.988;7.856;2022-12-18T20:53:32;33.17;;;23.87;;
2712;SDS011;1366;47.988;7.856;2022-12-18T20:55:58;29.57;;;23.43;;
2712;SDS011;1366;47.988;7.856;2022-12-18T20:58:26;28.87;;;22.37;;
2712;SDS011;1366;47.988;7.856;2022-12-18T21:01:06;33.90;;;24.90;;
2712;SDS011;1366;47.988;7.856;2022-12-18T21:03:33;31.93;;;24.37;;
2712;SDS011;1366;47.988;7.856;2022-12-18T21:06:02;29.50;;;23.00;;
2712;SDS011;1366;47.988;7.856;2022-12-18T21:08:28;34.63;;;24.10;;
2712;SDS011;1366;47.988;7.856;2022-12-18T21:10:54;31.43;;;22.50;;
2712;SDS011;1366;47.988;7.856;2022-12-18T21:13:21;35.13;;;24.17;;
2712;SDS011;1366;47.988;7.856;2022-12-18T21:15:48;31.77;;;21.50;;
2712;SDS011;1366;47.988;7.856;2022-12-18T21:18:14;32.03;;;22.10;;
2712;SDS011;1366;47.988;7.856;2022-12-18T21:20:40;30.53;;;22.47;;
2712;SDS011;1366;47.988;7.856;2022-12-18T21:23:06;30.73;;;20.63;;
2712;SDS011;1366;47.988;7.856;2022-12-18T21:25:34;31.70;;;21.07;;
2712;SDS011;1366;47.988;7.856;2022-12-18T21:28:00;27.87;;;18.73;;
2712;SDS011;1366;47.988;7.856;2022-12-18T21:30:26;28.50;;;20.80;;
2712;SDS011;1366;47.988;7.856;2022-12-18T21:32:52;26.00;;;19.33;;
2712;SDS011;1366;47.988;7.856;2022-12-18T21:35:18;30.40;;;22.83;;
2712;SDS011;1366;47.988;7.856;2022-12-18T21:37:44;36.13;;;23.97;;
2712;SDS011;1366;47.988;7.856;2022-12-18T21:40:11;31.13;;;23.63;;
2712;SDS011;1366;47.988;7.856;2022-12-18T21:42:37;32.33;;;21.93;;